< < Back
Terminal Aerodrome Forecast


Current Version              Previous Versions:   1  2  3  4  5  6  7  8  9  

Terminal Aerodrome Forecast

564
FTUS44 KMOB 231200 AAA
TAFMOB
TAF AMD
KMOB 231218Z 2312/2412 00000KT 3SM BR FEW200
      TEMPO 2312/2313 1/2SM FG
     FM231800 15006KT P6SM SCT035
     FM240200 VRB03KT P6SM SKC=

Latest METAR

462
SAUS80 KWBC 240200
MTRMOB
METAR KMOB 240156Z 23005KT 10SM FEW250 20/18 A2993 RMK AO2 SLP132
T02000178


USA.gov is the U.S. government's official web portal to all federal, state and local government web resources and services.